createdAt,value
2017-11-22T00:26:29.027Z,89.50
2017-11-22T00:28:57.284Z,89.70
2017-11-22T00:31:24.763Z,89.60
2017-11-22T00:33:53.033Z,90.10
2017-11-22T00:36:20.499Z,90.10
2017-11-22T00:38:48.729Z,90.30
2017-11-22T00:41:16.216Z,90.30
2017-11-22T00:43:43.692Z,90.40
2017-11-22T00:46:11.940Z,90.50
2017-11-22T00:48:39.424Z,90.50
2017-11-22T00:51:07.680Z,90.60
2017-11-22T00:53:35.156Z,90.50
2017-11-22T00:56:03.436Z,90.50
2017-11-22T00:58:31.688Z,90.60
2017-11-22T01:00:59.165Z,90.60
2017-11-22T01:03:27.420Z,90.50
2017-11-22T01:05:54.891Z,90.50
2017-11-22T01:08:22.396Z,90.70
2017-11-22T01:10:49.865Z,90.50
2017-11-22T01:13:17.340Z,90.50
2017-11-22T01:15:44.833Z,90.50
2017-11-22T01:18:13.069Z,90.40
2017-11-22T01:20:40.549Z,90.40
2017-11-22T01:23:08.020Z,90.40
2017-11-22T01:25:35.495Z,90.40
2017-11-22T01:28:03.752Z,90.40
2017-11-22T01:30:31.221Z,90.40
2017-11-22T01:32:59.474Z,90.50
2017-11-22T01:35:26.951Z,90.40
2017-11-22T01:37:55.219Z,90.40
2017-11-22T01:40:22.684Z,90.30
2017-11-22T01:42:50.924Z,90.30
2017-11-22T01:45:18.415Z,90.30
2017-11-22T01:47:45.881Z,90.40
2017-11-22T01:50:14.132Z,90.50
2017-11-22T01:52:42.120Z,90.50
2017-11-22T01:55:09.684Z,90.50
2017-11-22T01:57:37.933Z,90.50
2017-11-22T02:00:05.467Z,90.50
2017-11-22T02:02:32.968Z,90.40
2017-11-22T02:05:00.436Z,90.50
2017-11-22T02:07:28.811Z,90.80
2017-11-22T02:09:56.280Z,90.70
2017-11-22T02:12:24.522Z,90.90
2017-11-22T02:14:52.008Z,90.90
2017-11-22T02:17:20.249Z,90.90
2017-11-22T02:19:47.753Z,90.90
2017-11-22T02:22:15.996Z,91.10
2017-11-22T02:24:43.472Z,91.00
2017-11-22T02:27:10.959Z,90.90
2017-11-22T02:29:38.433Z,90.70
2017-11-22T02:32:05.929Z,91.10
2017-11-22T02:34:33.427Z,91.10
2017-11-22T02:37:01.697Z,91.30
2017-11-22T02:39:29.948Z,91.20
2017-11-22T02:41:57.496Z,91.20
2017-11-22T02:44:24.986Z,91.30
2017-11-22T02:46:53.238Z,91.10
2017-11-22T02:49:20.817Z,91.10
2017-11-22T02:51:49.072Z,91.10
2017-11-22T02:54:16.572Z,91.10
2017-11-22T02:56:44.047Z,91.10
2017-11-22T02:59:11.542Z,91.30
2017-11-22T03:01:39.034Z,91.20
2017-11-22T03:04:07.278Z,91.20
2017-11-22T03:06:34.763Z,91.20
2017-11-22T03:09:03.005Z,91.50
2017-11-22T03:11:30.512Z,91.20
2017-11-22T03:13:58.757Z,91.30
2017-11-22T03:16:26.232Z,91.20
2017-11-22T03:18:54.493Z,91.20
2017-11-22T03:21:21.981Z,91.10
2017-11-22T03:23:49.501Z,91.20
2017-11-22T03:26:16.979Z,91.30
2017-11-22T03:28:45.241Z,91.50
2017-11-22T03:31:12.715Z,91.30
2017-11-22T03:33:40.965Z,91.40
2017-11-22T03:36:08.450Z,91.40
2017-11-22T03:38:35.917Z,91.30
2017-11-22T03:41:04.171Z,91.30
2017-11-22T03:43:31.642Z,91.30
2017-11-22T03:45:59.933Z,91.20
2017-11-22T03:48:27.418Z,91.10
2017-11-22T03:51:00.774Z,91.10
2017-11-22T03:53:34.760Z,91.30
2017-11-22T03:56:02.268Z,91.30
2017-11-22T03:58:29.806Z,91.30
2017-11-22T04:00:58.044Z,91.10
2017-11-22T04:03:25.536Z,91.10
2017-11-22T04:05:55.838Z,91.00
2017-11-22T04:08:27.964Z,91.00
2017-11-22T04:10:55.453Z,91.10
2017-11-22T04:13:22.948Z,91.00
2017-11-22T04:15:51.188Z,91.00
2017-11-22T04:18:19.601Z,91.00
2017-11-22T04:20:53.484Z,91.00
2017-11-22T04:23:20.960Z,91.00
2017-11-22T04:25:48.459Z,90.90
2017-11-22T04:28:15.932Z,91.00
2017-11-22T04:30:43.441Z,90.90
2017-11-22T04:33:10.908Z,91.00
2017-11-22T04:35:39.177Z,90.80
2017-11-22T04:38:07.464Z,90.90
2017-11-22T04:40:35.697Z,90.90
2017-11-22T04:43:03.180Z,90.90
2017-11-22T04:45:30.657Z,90.80
2017-11-22T04:47:58.924Z,91.00
2017-11-22T04:50:27.176Z,90.80
2017-11-22T04:52:54.652Z,90.80
2017-11-22T04:55:22.131Z,90.80
2017-11-22T04:57:50.406Z,90.90
2017-11-22T05:00:17.892Z,90.90
2017-11-22T05:02:45.361Z,90.90
2017-11-22T05:05:12.855Z,90.90
2017-11-22T05:07:40.324Z,90.90
2017-11-22T05:10:08.595Z,91.20
2017-11-22T05:12:36.086Z,90.90
2017-11-22T05:15:03.564Z,90.80
2017-11-22T05:17:31.048Z,90.90
2017-11-22T05:19:58.528Z,90.90
2017-11-22T05:22:26.016Z,90.90
2017-11-22T05:24:53.495Z,91.00
2017-11-22T05:27:21.017Z,90.90
2017-11-22T05:29:49.298Z,90.90
2017-11-22T05:32:17.556Z,90.80
2017-11-22T05:34:45.044Z,90.80
2017-11-22T05:37:12.522Z,90.80
2017-11-22T05:39:40.028Z,90.80
2017-11-22T05:42:07.616Z,90.90
2017-11-22T05:44:35.104Z,90.80
2017-11-22T05:47:02.597Z,90.80
2017-11-22T05:49:30.068Z,90.90
2017-11-22T05:51:57.558Z,90.90
2017-11-22T05:54:25.100Z,90.90
2017-11-22T05:56:53.365Z,90.90
2017-11-22T05:59:21.616Z,90.80
2017-11-22T06:01:49.109Z,90.80
2017-11-22T06:04:17.360Z,91.00
2017-11-22T06:06:44.842Z,90.90
2017-11-22T06:09:13.152Z,90.80
2017-11-22T06:11:40.628Z,90.80
2017-11-22T06:14:08.153Z,90.50
2017-11-22T06:16:35.698Z,90.70
2017-11-22T06:19:04.007Z,90.60
2017-11-22T06:21:31.512Z,90.60
2017-11-22T06:23:58.983Z,90.90
2017-11-22T06:26:27.258Z,90.60
2017-11-22T06:28:55.508Z,90.60
2017-11-22T06:31:23.107Z,90.60
2017-11-22T06:33:51.388Z,90.30
2017-11-22T06:36:19.625Z,90.10
2017-11-22T06:38:47.112Z,90.10
2017-11-22T06:41:15.362Z,90.10
2017-11-22T06:43:42.849Z,90.10
2017-11-22T06:46:11.085Z,90.00
2017-11-22T06:48:38.584Z,90.00
2017-11-22T06:51:06.829Z,90.00
2017-11-22T06:53:34.304Z,89.90
2017-11-22T06:56:02.596Z,89.60
2017-11-22T06:58:30.844Z,89.90
2017-11-22T07:00:58.333Z,89.80
2017-11-22T07:06:27.535Z,89.00
2017-11-22T07:08:55.009Z,88.90
2017-11-22T07:11:23.259Z,88.60
2017-11-22T07:13:50.762Z,88.60
2017-11-22T07:16:23.988Z,88.50
2017-11-22T07:18:51.474Z,88.30
2017-11-22T07:21:18.961Z,88.30
2017-11-22T07:23:47.227Z,88.30
2017-11-22T07:31:49.253Z,88.50
2017-11-22T07:34:16.730Z,89.00
2017-11-22T07:36:45.202Z,88.90
2017-11-22T14:06:50.607Z,75.00
2017-11-22T14:09:18.171Z,75.60
2017-11-22T14:11:45.662Z,76.00
2017-11-22T14:14:13.133Z,76.80
2017-11-22T14:16:40.646Z,77.40
2017-11-22T14:19:08.116Z,78.00
2017-11-22T14:21:35.620Z,78.40
2017-11-22T14:24:03.088Z,79.00
2017-11-22T14:26:31.361Z,79.80
2017-11-22T14:28:59.609Z,79.60
2017-11-22T14:31:27.079Z,79.60
2017-11-22T14:33:54.676Z,79.80
2017-11-22T14:36:22.916Z,80.80
2017-11-22T14:38:50.431Z,80.80
2017-11-22T14:41:17.905Z,80.60
2017-11-22T14:43:45.416Z,80.40
2017-11-22T14:46:13.652Z,80.80
2017-11-22T14:48:41.142Z,80.70
2017-11-22T14:51:09.408Z,82.30
2017-11-22T14:53:36.888Z,81.60
2017-11-22T14:56:05.141Z,81.00
2017-11-22T14:58:33.380Z,80.40
2017-11-22T15:01:00.969Z,80.50
2017-11-22T15:03:28.486Z,80.60
2017-11-22T15:05:55.962Z,80.20
2017-11-22T15:08:23.469Z,80.20
2017-11-22T15:10:57.500Z,81.50
2017-11-22T15:13:25.753Z,82.30
2017-11-22T15:15:54.075Z,82.40
2017-11-22T15:18:21.581Z,82.30
2017-11-22T15:20:49.057Z,82.50
2017-11-22T15:23:17.292Z,82.90
2017-11-22T15:25:44.780Z,82.90
2017-11-22T15:28:12.272Z,83.30
2017-11-22T15:30:39.762Z,84.00
2017-11-22T15:33:07.233Z,83.90
2017-11-22T15:35:34.756Z,84.00
2017-11-22T15:38:02.230Z,84.40
2017-11-22T15:40:29.785Z,84.50
2017-11-22T15:42:57.292Z,84.50
2017-11-22T15:45:25.552Z,84.70
2017-11-22T15:47:53.173Z,84.70
2017-11-22T15:50:20.682Z,84.90
2017-11-22T15:52:48.196Z,85.10
2017-11-22T15:55:15.693Z,85.60
2017-11-22T15:57:43.176Z,85.10
2017-11-22T16:00:11.445Z,86.20
2017-11-22T16:02:39.699Z,86.70
2017-11-22T16:05:07.190Z,86.70
2017-11-22T16:07:35.433Z,87.80
2017-11-22T16:10:02.953Z,87.80
2017-11-22T16:12:30.441Z,88.10
2017-11-22T16:14:57.913Z,88.20
2017-11-22T16:17:26.924Z,88.70
2017-11-22T16:19:55.174Z,89.00
2017-11-22T16:22:22.667Z,89.00
2017-11-22T16:24:50.929Z,89.70
2017-11-22T16:27:18.437Z,89.00
2017-11-22T16:29:45.952Z,90.00
2017-11-22T16:32:14.228Z,89.50
2017-11-22T16:34:41.734Z,89.50
2017-11-22T16:37:09.239Z,89.40
2017-11-22T16:39:36.746Z,89.60
2017-11-22T16:42:04.236Z,89.60
2017-11-22T16:44:31.722Z,89.80
2017-11-22T16:47:00.001Z,90.00
2017-11-22T16:49:28.245Z,90.00
2017-11-22T16:51:55.752Z,90.00
2017-11-22T16:54:23.997Z,90.20
2017-11-22T16:56:51.508Z,90.20
2017-11-22T16:59:19.005Z,90.20
2017-11-22T17:01:46.592Z,90.20
2017-11-22T17:04:14.856Z,90.30
2017-11-22T17:06:42.351Z,90.30
2017-11-22T17:09:09.882Z,90.20
2017-11-22T17:11:38.199Z,90.30
2017-11-22T17:14:05.676Z,90.30
2017-11-22T17:16:33.160Z,90.30
2017-11-22T17:19:00.641Z,90.30
2017-11-22T17:21:28.900Z,90.60
2017-11-22T17:23:56.433Z,90.50
2017-11-22T17:26:23.952Z,90.60
2017-11-22T17:28:51.433Z,90.60
2017-11-22T17:31:18.917Z,90.50
2017-11-22T17:33:46.414Z,90.40
2017-11-22T17:36:14.664Z,90.30
2017-11-22T17:38:42.152Z,90.30
2017-11-22T17:41:10.410Z,90.30
2017-11-22T17:43:37.913Z,90.30
2017-11-22T17:46:05.388Z,90.20
2017-11-22T17:48:32.877Z,90.20
2017-11-22T17:51:00.454Z,90.20
2017-11-22T17:53:28.704Z,90.40
2017-11-22T17:55:56.192Z,90.30
2017-11-22T17:58:24.443Z,90.00
2017-11-22T18:00:51.949Z,90.00
2017-11-22T18:03:19.433Z,90.00
2017-11-22T18:05:46.929Z,90.00
2017-11-22T18:08:14.519Z,90.20
2017-11-22T18:10:42.771Z,90.20
2017-11-22T18:13:10.264Z,90.10
2017-11-22T18:15:37.758Z,90.20
2017-11-22T18:18:05.286Z,90.10
2017-11-22T18:20:32.804Z,90.00
2017-11-22T18:23:00.275Z,89.90
2017-11-22T18:25:28.567Z,89.70
2017-11-22T18:27:56.093Z,89.70
2017-11-22T18:30:23.584Z,89.80
2017-11-22T18:32:51.065Z,89.30
2017-11-22T18:35:18.565Z,89.40
2017-11-22T18:37:46.104Z,89.50
2017-11-22T18:40:13.578Z,89.30
2017-11-22T18:42:41.074Z,89.40
2017-11-22T18:45:09.317Z,89.40
2017-11-22T18:47:37.576Z,89.30
2017-11-22T18:50:05.052Z,89.30
2017-11-22T18:52:32.547Z,89.40
2017-11-22T18:55:00.030Z,89.30
2017-11-22T18:57:27.504Z,89.20
2017-11-22T18:59:55.041Z,89.00
2017-11-22T19:02:22.517Z,89.10
2017-11-22T19:04:50.046Z,89.10
2017-11-22T19:07:17.531Z,89.00
2017-11-22T19:09:45.032Z,88.70
2017-11-22T19:12:13.268Z,88.50
2017-11-22T19:14:40.741Z,88.50
2017-11-22T19:17:08.250Z,88.60
2017-11-22T19:19:35.737Z,88.20
2017-11-22T19:22:03.247Z,88.00
2017-11-22T19:24:31.485Z,88.10
2017-11-22T19:26:59.010Z,88.10
2017-11-22T19:29:26.484Z,88.00
2017-11-22T19:31:53.965Z,87.80
2017-11-22T19:34:21.560Z,87.60
2017-11-22T19:36:49.806Z,88.00
2017-11-22T19:39:17.298Z,87.80
2017-11-22T19:41:45.544Z,87.30
2017-11-22T19:44:13.066Z,87.30
2017-11-22T19:46:40.553Z,88.00
2017-11-22T19:49:08.025Z,87.10
2017-11-22T19:51:37.059Z,87.50
2017-11-22T19:54:04.542Z,87.30
2017-11-22T19:56:32.044Z,87.30
2017-11-22T19:58:59.532Z,87.40
2017-11-22T20:01:27.838Z,88.10
2017-11-22T20:03:55.329Z,88.10
2017-11-22T20:06:22.837Z,88.50
2017-11-22T20:08:50.343Z,88.80
2017-11-22T20:11:17.826Z,89.00
2017-11-22T20:13:46.088Z,90.20
2017-11-22T20:16:13.547Z,90.20
2017-11-22T20:18:41.060Z,90.30
2017-11-22T20:21:08.573Z,90.50
2017-11-22T20:23:36.088Z,90.50
2017-11-22T20:26:03.598Z,90.80
2017-11-22T20:28:31.845Z,90.80
2017-11-22T20:30:59.333Z,90.80
2017-11-22T20:33:27.584Z,90.70
2017-11-22T20:35:55.091Z,90.70
2017-11-22T20:38:22.597Z,90.50
2017-11-22T20:40:50.081Z,90.50
2017-11-22T20:43:18.339Z,90.40
2017-11-22T20:45:45.805Z,90.40
2017-11-22T20:48:14.088Z,90.30
2017-11-22T20:50:41.575Z,90.30
2017-11-22T20:53:09.053Z,90.60
2017-11-22T20:55:36.550Z,90.40
2017-11-22T20:58:04.032Z,90.50
2017-11-22T21:00:32.293Z,90.60
2017-11-22T21:02:59.816Z,90.60
2017-11-22T21:05:27.286Z,90.50
2017-11-22T21:07:54.785Z,90.50
2017-11-22T21:10:23.023Z,90.40
2017-11-22T21:12:50.515Z,90.30
2017-11-22T21:15:18.762Z,90.10
2017-11-22T21:17:46.257Z,90.00
2017-11-22T21:20:14.499Z,90.20
2017-11-22T21:22:41.964Z,90.20
2017-11-22T21:25:09.542Z,90.00
2017-11-22T21:27:37.780Z,90.10
2017-11-22T21:30:05.272Z,90.00
2017-11-22T21:32:32.753Z,90.10
2017-11-22T21:35:01.023Z,90.00
2017-11-22T21:37:29.256Z,89.90
2017-11-22T21:39:56.728Z,89.90
2017-11-22T21:42:24.231Z,89.60
2017-11-22T21:44:51.704Z,89.70
2017-11-22T21:47:19.207Z,89.80
2017-11-22T21:49:46.684Z,90.00
2017-11-22T21:52:14.936Z,89.70
2017-11-22T21:54:42.409Z,89.70
2017-11-22T21:57:09.873Z,89.80
2017-11-22T21:59:38.128Z,89.60
2017-11-22T22:02:05.612Z,89.60
2017-11-22T22:04:34.964Z,89.70
2017-11-22T22:07:02.428Z,89.70
2017-11-22T22:09:29.960Z,89.50
2017-11-22T22:11:57.653Z,88.90
2017-11-22T22:14:25.161Z,88.80
2017-11-22T22:16:53.464Z,87.90
2017-11-22T22:19:20.947Z,87.90
2017-11-22T22:21:48.436Z,87.50
2017-11-22T22:24:16.696Z,87.90
2017-11-22T22:26:44.181Z,87.50
2017-11-22T22:29:12.444Z,87.50
2017-11-22T22:31:39.921Z,87.40
2017-11-22T22:34:08.204Z,87.50
2017-11-22T22:36:35.741Z,87.40
2017-11-22T22:39:04.460Z,87.50
2017-11-22T22:41:31.964Z,87.40
2017-11-22T22:43:59.456Z,87.10
2017-11-22T22:46:27.832Z,86.50
2017-11-22T22:48:56.112Z,86.50
2017-11-22T22:51:24.372Z,86.50
2017-11-22T22:53:52.624Z,86.50
2017-11-22T22:56:20.213Z,86.40
2017-11-22T22:58:47.694Z,86.30
2017-11-22T23:01:15.941Z,86.60
2017-11-22T23:03:43.557Z,86.00
2017-11-22T23:06:11.208Z,85.90
2017-11-22T23:08:38.714Z,85.70
2017-11-22T23:11:06.183Z,86.00
2017-11-22T23:13:33.650Z,85.80
2017-11-22T23:16:01.924Z,85.70
2017-11-22T23:18:29.509Z,85.70
2017-11-22T23:20:57.001Z,85.90
2017-11-22T23:23:24.469Z,86.30
2017-11-22T23:25:51.973Z,86.50
2017-11-22T23:28:20.293Z,86.50
2017-11-22T23:30:47.816Z,86.10
2017-11-22T23:33:15.303Z,86.20
2017-11-22T23:35:42.788Z,85.90
2017-11-22T23:38:10.315Z,85.60
2017-11-22T23:40:37.781Z,85.40
2017-11-22T23:43:05.299Z,85.10
2017-11-22T23:45:33.555Z,85.20
2017-11-22T23:48:01.024Z,85.10
2017-11-22T23:50:28.509Z,84.70
2017-11-22T23:52:55.981Z,84.00
2017-11-22T23:55:23.505Z,84.90
2017-11-22T23:57:51.743Z,84.10
